createdAt,value
2019-05-26T00:01:29.093Z,63.27
2019-05-26T00:03:59.219Z,63.96
2019-05-26T00:06:29.334Z,63.79
2019-05-26T00:08:59.462Z,63.79
2019-05-26T00:11:29.605Z,63.54
2019-05-26T00:14:01.394Z,63.42
2019-05-26T00:16:31.529Z,63.36
2019-05-26T00:19:01.663Z,63.32
2019-05-26T00:21:31.795Z,63.39
2019-05-26T00:24:01.923Z,63.34
2019-05-26T00:26:32.110Z,63.53
2019-05-26T00:29:02.227Z,63.24
2019-05-26T00:31:32.435Z,63.00
2019-05-26T00:34:02.603Z,63.01
2019-05-26T00:36:33.737Z,62.79
2019-05-26T00:39:04.779Z,62.58
2019-05-26T00:41:34.911Z,62.88
2019-05-26T00:44:05.838Z,62.81
2019-05-26T00:46:36.535Z,62.75
2019-05-26T00:49:06.667Z,62.70
2019-05-26T00:51:36.812Z,62.60
2019-05-26T00:54:06.942Z,62.14
2019-05-26T00:56:37.070Z,62.31
2019-05-26T00:59:07.199Z,62.25
2019-05-26T01:01:37.320Z,62.62
2019-05-26T01:04:07.446Z,62.73
2019-05-26T01:06:37.625Z,62.31
2019-05-26T01:09:10.002Z,62.08
2019-05-26T01:11:40.128Z,62.01
2019-05-26T01:14:10.252Z,62.41
2019-05-26T01:16:40.362Z,62.01
2019-05-26T01:19:10.479Z,61.99
2019-05-26T01:21:41.674Z,62.08
2019-05-26T01:24:11.786Z,62.16
2019-05-26T01:26:41.960Z,62.22
2019-05-26T01:29:12.143Z,61.97
2019-05-26T01:31:42.280Z,61.96
2019-05-26T01:34:12.436Z,61.57
2019-05-26T01:36:42.562Z,61.41
2019-05-26T01:39:12.684Z,61.91
2019-05-26T01:41:42.821Z,61.33
2019-05-26T01:44:12.921Z,61.42
2019-05-26T01:46:43.054Z,61.37
2019-05-26T01:49:13.178Z,62.21
2019-05-26T01:51:43.318Z,62.08
2019-05-26T01:54:13.446Z,61.90
2019-05-26T01:56:43.574Z,62.08
2019-05-26T01:59:13.707Z,61.88
2019-05-26T02:01:43.834Z,61.93
2019-05-26T02:04:13.956Z,61.72
2019-05-26T02:06:44.103Z,62.01
2019-05-26T02:09:14.297Z,61.16
2019-05-26T02:11:44.515Z,61.77
2019-05-26T02:14:14.832Z,61.43
2019-05-26T02:16:44.981Z,61.09
2019-05-26T02:19:15.160Z,61.23
2019-05-26T02:21:46.595Z,62.32
2019-05-26T02:24:16.750Z,62.17
2019-05-26T02:26:47.968Z,61.73
2019-05-26T02:29:18.086Z,61.83
2019-05-26T02:31:48.217Z,61.95
2019-05-26T02:34:18.335Z,62.63
2019-05-26T02:36:48.511Z,62.06
2019-05-26T02:39:18.618Z,62.42
2019-05-26T02:41:48.747Z,62.60
2019-05-26T02:44:18.880Z,62.30
2019-05-26T02:46:48.995Z,61.63
2019-05-26T02:49:19.111Z,61.95
2019-05-26T02:51:49.239Z,62.05
2019-05-26T02:54:19.398Z,62.46
2019-05-26T02:56:49.528Z,62.69
2019-05-26T02:59:19.645Z,62.83
2019-05-26T03:02:02.165Z,64.68
2019-05-26T03:04:21.795Z,65.05
2019-05-26T03:06:55.070Z,65.13
2019-05-26T03:09:26.373Z,65.87
2019-05-26T03:11:59.258Z,65.55
2019-05-26T03:14:32.951Z,65.97
2019-05-26T03:17:03.706Z,65.30
2019-05-26T03:19:35.706Z,64.77
2019-05-26T03:22:06.024Z,66.46
2019-05-26T03:24:37.590Z,66.46
2019-05-26T03:27:07.715Z,67.09
2019-05-26T03:29:38.923Z,66.07
2019-05-26T03:32:09.075Z,65.48
2019-05-26T03:34:39.175Z,66.97
2019-05-26T03:37:09.289Z,67.13
2019-05-26T03:39:45.021Z,66.06
2019-05-26T03:42:11.299Z,67.15
2019-05-26T03:44:41.429Z,67.14
2019-05-26T03:47:16.414Z,67.97
2019-05-26T03:49:43.378Z,68.87
2019-05-26T03:52:13.518Z,67.66
2019-05-26T03:54:43.667Z,66.96
2019-05-26T03:57:13.805Z,66.76
2019-05-26T03:59:43.923Z,66.65
2019-05-26T04:02:14.074Z,67.31
2019-05-26T04:04:44.274Z,68.02
2019-05-26T04:07:14.642Z,68.26
2019-05-26T04:10:03.051Z,68.16
2019-05-26T04:12:16.544Z,69.23
2019-05-26T04:14:46.677Z,69.20
2019-05-26T04:17:16.834Z,68.34
2019-05-26T04:19:46.971Z,68.44
2019-05-26T04:22:17.110Z,69.39
2019-05-26T04:24:49.192Z,69.96
2019-05-26T04:27:19.310Z,68.75
2019-05-26T04:29:49.432Z,69.59
2019-05-26T04:32:19.562Z,69.48
2019-05-26T04:34:49.695Z,69.07
2019-05-26T04:37:19.898Z,70.08
2019-05-26T04:39:50.079Z,69.46
2019-05-26T04:42:21.271Z,68.19
2019-05-26T04:44:51.382Z,68.52
2019-05-26T04:47:21.510Z,67.50
2019-05-26T04:49:51.635Z,66.90
2019-05-26T04:52:21.765Z,67.94
2019-05-26T04:54:51.946Z,68.99
2019-05-26T04:57:22.063Z,68.52
2019-05-26T04:59:52.196Z,70.05
2019-05-26T05:02:22.314Z,69.68
2019-05-26T05:04:52.433Z,70.46
2019-05-26T05:07:22.594Z,70.71
2019-05-26T05:09:52.726Z,70.63
2019-05-26T05:12:22.859Z,70.46
2019-05-26T05:14:53.718Z,70.98
2019-05-26T05:17:23.864Z,71.04
2019-05-26T05:19:53.987Z,71.97
2019-05-26T05:22:24.107Z,71.20
2019-05-26T05:24:55.292Z,70.30
2019-05-26T05:27:25.425Z,71.11
2019-05-26T05:29:55.546Z,68.48
2019-05-26T05:32:25.683Z,69.08
2019-05-26T05:34:55.818Z,69.12
2019-05-26T05:37:25.970Z,68.29
2019-05-26T05:39:57.160Z,66.88
2019-05-26T05:42:27.318Z,67.51
2019-05-26T05:44:57.447Z,67.54
2019-05-26T05:47:27.583Z,68.34
2019-05-26T05:49:57.698Z,69.29
2019-05-26T05:52:27.832Z,68.26
2019-05-26T05:54:58.040Z,67.54
2019-05-26T05:57:28.170Z,67.98
2019-05-26T05:59:58.306Z,68.25
2019-05-26T06:02:28.454Z,68.92
2019-05-26T06:04:58.579Z,67.70
2019-05-26T06:07:28.716Z,68.33
2019-05-26T06:09:58.836Z,67.88
2019-05-26T06:12:28.960Z,68.85
2019-05-26T06:14:59.078Z,68.61
2019-05-26T06:17:29.232Z,69.17
2019-05-26T06:19:59.466Z,69.17
2019-05-26T06:22:29.610Z,67.94
2019-05-26T06:24:59.727Z,66.70
2019-05-26T06:27:29.856Z,68.34
2019-05-26T06:30:00.154Z,68.52
2019-05-26T06:32:30.286Z,68.50
2019-05-26T06:35:00.405Z,68.56
2019-05-26T06:37:30.545Z,66.78
2019-05-26T06:40:02.183Z,66.71
2019-05-26T06:42:32.403Z,66.72
2019-05-26T06:45:02.541Z,68.34
2019-05-26T06:47:32.744Z,68.47
2019-05-26T06:50:02.878Z,69.43
2019-05-26T06:52:33.025Z,70.24
2019-05-26T06:55:03.225Z,70.24
2019-05-26T06:57:33.363Z,69.43
2019-05-26T07:00:03.495Z,69.40
2019-05-26T07:02:33.630Z,69.24
2019-05-26T07:05:04.120Z,68.95
2019-05-26T07:07:34.379Z,68.69
2019-05-26T07:10:04.794Z,68.11
2019-05-26T07:12:34.920Z,67.31
2019-05-26T07:15:06.031Z,67.58
2019-05-26T07:17:36.167Z,67.83
2019-05-26T07:20:07.994Z,67.42
2019-05-26T07:22:38.118Z,67.54
2019-05-26T07:25:10.104Z,66.73
2019-05-26T07:27:40.202Z,67.77
2019-05-26T07:30:10.955Z,68.16
2019-05-26T07:32:41.074Z,66.71
2019-05-26T07:35:11.214Z,66.82
2019-05-26T07:37:41.346Z,67.17
2019-05-26T07:40:11.956Z,67.77
2019-05-26T07:42:42.087Z,68.28
2019-05-26T07:45:12.701Z,67.07
2019-05-26T07:47:42.835Z,67.05
2019-05-26T07:50:13.854Z,67.44
2019-05-26T07:52:43.975Z,68.28
2019-05-26T07:55:14.468Z,67.86
2019-05-26T07:57:44.623Z,66.93
2019-05-26T08:00:15.137Z,67.34
2019-05-26T08:02:45.274Z,67.15
2019-05-26T08:05:15.458Z,67.23
2019-05-26T08:07:45.557Z,67.40
2019-05-26T08:10:16.467Z,66.21
2019-05-26T08:12:46.586Z,65.58
2019-05-26T08:15:16.943Z,66.41
2019-05-26T08:17:47.058Z,65.90
2019-05-26T08:20:17.292Z,64.99
2019-05-26T08:22:47.412Z,64.97
2019-05-26T08:25:18.229Z,64.37
2019-05-26T08:27:50.880Z,65.40
2019-05-26T08:30:21.268Z,64.72
2019-05-26T08:32:51.475Z,65.65
2019-05-26T08:35:21.594Z,65.12
2019-05-26T08:37:51.729Z,63.92
2019-05-26T08:40:21.858Z,64.77
2019-05-26T08:42:52.533Z,64.73
2019-05-26T08:45:23.320Z,63.10
2019-05-26T08:47:59.370Z,63.93
2019-05-26T08:50:29.498Z,63.38
2019-05-26T08:52:59.640Z,63.73
2019-05-26T08:55:29.811Z,60.07
2019-05-26T08:57:59.945Z,59.76
2019-05-26T09:00:30.064Z,59.98
2019-05-26T09:03:00.191Z,58.65
2019-05-26T09:05:30.362Z,59.72
2019-05-26T09:08:00.652Z,58.27
2019-05-26T09:10:30.780Z,58.72
2019-05-26T09:13:01.763Z,56.86
2019-05-26T09:15:33.606Z,57.33
2019-05-26T09:18:03.762Z,56.82
2019-05-26T09:20:33.922Z,56.72
2019-05-26T09:23:04.355Z,54.74
2019-05-26T09:25:34.495Z,52.11
2019-05-26T09:28:04.621Z,51.10
2019-05-26T09:30:45.738Z,51.02
2019-05-26T09:33:20.631Z,50.53
2019-05-26T09:35:50.761Z,50.83
2019-05-26T09:38:20.970Z,51.48
2019-05-26T09:40:51.086Z,52.03
2019-05-26T09:43:21.255Z,51.70
2019-05-26T09:45:51.382Z,51.63
2019-05-26T09:48:21.530Z,51.48
2019-05-26T09:50:51.710Z,51.03
2019-05-26T09:53:21.849Z,50.72
2019-05-26T09:55:51.999Z,49.76
2019-05-26T09:58:24.925Z,49.43
2019-05-26T10:01:07.710Z,48.44
2019-05-26T10:03:46.692Z,47.88
2019-05-26T10:06:19.932Z,47.61
2019-05-26T10:08:52.838Z,47.56
2019-05-26T10:11:29.371Z,47.58
2019-05-26T10:14:02.074Z,47.84
2019-05-26T10:16:36.514Z,48.85
2019-05-26T10:19:09.362Z,48.99
2019-05-26T10:21:39.479Z,49.43
2019-05-26T10:24:09.651Z,49.25
2019-05-26T10:26:39.813Z,50.14
2019-05-26T10:29:10.050Z,49.25
2019-05-26T10:31:40.173Z,48.16
2019-05-26T10:34:13.620Z,47.90
2019-05-26T10:36:47.828Z,46.77
2019-05-26T10:39:18.028Z,45.90
2019-05-26T10:41:48.255Z,45.66
2019-05-26T10:44:18.383Z,44.96
2019-05-26T10:46:48.550Z,45.21
2019-05-26T10:49:18.995Z,44.82
2019-05-26T10:51:49.239Z,44.43
2019-05-26T10:54:19.383Z,43.71
2019-05-26T10:56:50.637Z,43.39
2019-05-26T10:59:20.771Z,43.09
2019-05-26T11:01:50.893Z,43.02
2019-05-26T11:04:21.014Z,43.64
2019-05-26T11:06:51.139Z,43.55
2019-05-26T11:09:21.309Z,43.97
2019-05-26T11:11:51.443Z,44.66
2019-05-26T11:14:21.576Z,43.66
2019-05-26T11:16:51.707Z,44.79
2019-05-26T11:19:21.837Z,45.36
2019-05-26T11:21:51.946Z,45.83
2019-05-26T11:24:22.070Z,45.98
2019-05-26T11:26:52.223Z,47.08
2019-05-26T11:29:22.398Z,46.17
2019-05-26T11:31:52.527Z,45.42
2019-05-26T11:34:22.660Z,45.22
2019-05-26T11:36:52.775Z,44.35
2019-05-26T11:39:22.938Z,42.92
2019-05-26T11:41:55.001Z,42.73
2019-05-26T11:44:24.893Z,41.57
2019-05-26T11:46:55.008Z,40.28
2019-05-26T11:49:25.162Z,40.77
2019-05-26T11:51:56.371Z,40.16
2019-05-26T11:54:26.513Z,39.55
2019-05-26T11:56:56.745Z,39.60
2019-05-26T11:59:27.254Z,38.50
2019-05-26T12:01:57.512Z,37.63
2019-05-26T12:04:28.828Z,37.62
2019-05-26T12:06:59.024Z,39.28
2019-05-26T12:09:29.140Z,38.23
2019-05-26T12:12:00.096Z,38.23
2019-05-26T12:14:34.988Z,38.91
2019-05-26T12:17:02.046Z,38.29
2019-05-26T12:19:32.202Z,38.29
2019-05-26T12:22:02.334Z,37.80
2019-05-26T12:24:32.476Z,37.09
2019-05-26T12:27:02.639Z,37.33
2019-05-26T12:29:32.758Z,37.31
2019-05-26T12:32:02.883Z,37.41
2019-05-26T12:34:33.044Z,36.32
2019-05-26T12:37:03.177Z,37.00
2019-05-26T12:39:33.318Z,38.57
2019-05-26T12:42:03.533Z,37.66
2019-05-26T12:44:48.204Z,37.79
2019-05-26T12:47:05.556Z,38.53
2019-05-26T12:49:35.716Z,37.60
2019-05-26T12:52:06.062Z,38.20
2019-05-26T12:54:36.195Z,36.62
2019-05-26T12:57:06.530Z,37.54
2019-05-26T12:59:36.679Z,36.06
2019-05-26T13:02:07.006Z,37.56
2019-05-26T13:04:37.126Z,36.89
2019-05-26T13:07:07.261Z,37.95
2019-05-26T13:09:37.414Z,37.20
2019-05-26T13:12:07.564Z,37.45
2019-05-26T13:14:37.806Z,37.94
2019-05-26T13:17:07.927Z,37.40
2019-05-26T13:19:38.055Z,39.22
2019-05-26T13:22:08.176Z,38.34
2019-05-26T13:24:39.320Z,37.53
2019-05-26T13:27:09.493Z,37.14
2019-05-26T13:29:39.607Z,38.02
2019-05-26T13:32:09.698Z,37.38
2019-05-26T13:34:39.827Z,38.90
2019-05-26T13:37:10.010Z,38.50
2019-05-26T13:39:40.175Z,38.27
2019-05-26T13:42:10.316Z,37.45
2019-05-26T13:44:40.435Z,37.41
2019-05-26T13:47:25.452Z,37.45
2019-05-26T13:49:43.035Z,37.44
2019-05-26T13:52:13.183Z,37.83
2019-05-26T13:54:43.387Z,38.43
2019-05-26T13:57:13.719Z,36.98
2019-05-26T13:59:43.843Z,37.30
2019-05-26T14:02:13.965Z,37.75
2019-05-26T14:04:44.095Z,36.32
2019-05-26T14:07:14.211Z,36.81
2019-05-26T14:09:45.489Z,37.53
2019-05-26T14:12:15.623Z,37.16
2019-05-26T14:14:45.757Z,36.93
2019-05-26T14:17:16.870Z,38.44
2019-05-26T14:19:49.101Z,38.50
2019-05-26T14:22:19.215Z,38.35
2019-05-26T14:24:53.810Z,38.06
2019-05-26T14:27:21.278Z,38.58
2019-05-26T14:29:51.418Z,38.67
2019-05-26T14:32:21.578Z,39.32
2019-05-26T14:34:52.041Z,39.38
2019-05-26T14:37:22.455Z,40.27
2019-05-26T14:39:52.575Z,40.03
2019-05-26T14:42:31.001Z,40.27
2019-05-26T14:45:12.654Z,40.35
2019-05-26T14:47:43.944Z,39.70
2019-05-26T14:50:14.696Z,39.55
2019-05-26T14:52:46.342Z,39.68
2019-05-26T14:55:16.911Z,39.95
2019-05-26T14:57:47.075Z,39.70
2019-05-26T15:00:17.839Z,39.81
2019-05-26T15:02:48.052Z,40.43
2019-05-26T15:05:18.413Z,40.01
2019-05-26T15:07:55.275Z,41.10
2019-05-26T15:10:27.983Z,41.21
2019-05-26T15:12:58.178Z,41.79
2019-05-26T15:15:28.920Z,41.36
2019-05-26T15:18:01.503Z,41.26
2019-05-26T15:20:36.213Z,42.24
2019-05-26T15:23:06.422Z,41.68
2019-05-26T15:25:36.564Z,41.73
2019-05-26T15:28:06.699Z,42.45
2019-05-26T15:30:36.833Z,42.03
2019-05-26T15:33:07.006Z,41.57
2019-05-26T15:35:39.077Z,42.12
2019-05-26T15:38:09.582Z,41.53
2019-05-26T15:40:40.924Z,42.27
2019-05-26T15:43:11.144Z,42.61
2019-05-26T15:45:41.387Z,41.91
2019-05-26T15:48:11.576Z,42.38
2019-05-26T15:50:41.725Z,41.70
2019-05-26T15:53:11.961Z,42.54
2019-05-26T15:55:44.017Z,43.83
2019-05-26T15:58:14.274Z,42.76
2019-05-26T16:00:44.408Z,42.65
2019-05-26T16:03:14.650Z,42.77
2019-05-26T16:05:44.800Z,43.61
2019-05-26T16:08:20.722Z,43.21
2019-05-26T16:10:51.914Z,43.35
2019-05-26T16:13:22.101Z,43.30
2019-05-26T16:15:52.192Z,44.59
2019-05-26T16:18:22.315Z,44.46
2019-05-26T16:21:02.723Z,44.28
2019-05-26T16:23:24.260Z,44.60
2019-05-26T16:25:54.399Z,45.06
2019-05-26T16:28:24.530Z,44.87
2019-05-26T16:30:54.689Z,45.02
2019-05-26T16:33:24.802Z,45.07
2019-05-26T16:35:55.764Z,45.15
2019-05-26T16:38:31.345Z,45.57
2019-05-26T16:41:01.667Z,45.82
2019-05-26T16:43:33.425Z,45.71
2019-05-26T16:46:03.648Z,45.61
2019-05-26T16:48:33.816Z,45.69
2019-05-26T16:51:03.973Z,45.94
2019-05-26T16:53:34.174Z,47.21
2019-05-26T16:56:05.444Z,46.02
2019-05-26T16:58:35.603Z,46.44
2019-05-26T17:01:05.811Z,46.45
2019-05-26T17:03:41.171Z,46.33
2019-05-26T17:06:11.341Z,46.64
2019-05-26T17:08:41.459Z,47.20
2019-05-26T17:11:11.579Z,47.30
2019-05-26T17:13:41.713Z,47.19
2019-05-26T17:16:14.834Z,47.43
2019-05-26T17:18:49.686Z,47.60
2019-05-26T17:21:19.866Z,47.81
2019-05-26T17:23:50.000Z,47.97
2019-05-26T17:26:22.600Z,48.25
2019-05-26T17:28:56.175Z,48.71
2019-05-26T17:31:46.994Z,49.20
2019-05-26T17:34:23.212Z,49.49
2019-05-26T17:37:16.650Z,49.47
2019-05-26T17:39:46.801Z,49.69
2019-05-26T17:42:17.288Z,49.68
2019-05-26T17:44:50.190Z,50.08
2019-05-26T17:47:30.276Z,50.18
2019-05-26T17:49:55.419Z,50.34
2019-05-26T17:52:32.980Z,50.42
2019-05-26T17:55:03.423Z,50.68
2019-05-26T17:57:38.165Z,50.87
2019-05-26T18:00:09.736Z,51.02
2019-05-26T18:02:50.998Z,51.35
2019-05-26T18:05:29.591Z,52.49
2019-05-26T18:08:04.550Z,52.87
2019-05-26T18:10:37.619Z,53.05
2019-05-26T18:13:08.155Z,53.59
2019-05-26T18:15:39.755Z,54.18
2019-05-26T18:18:09.991Z,55.16
2019-05-26T18:20:40.126Z,55.80
2019-05-26T18:23:10.336Z,56.57
2019-05-26T18:25:40.464Z,57.03
2019-05-26T18:28:10.712Z,56.78
2019-05-26T18:30:40.912Z,56.13
2019-05-26T18:33:11.095Z,56.99
2019-05-26T18:35:43.910Z,57.26
2019-05-26T18:38:14.020Z,57.60
2019-05-26T18:40:45.415Z,58.14
2019-05-26T18:43:15.564Z,57.98
2019-05-26T18:45:46.024Z,58.43
2019-05-26T18:48:16.765Z,58.77
2019-05-26T18:50:48.404Z,58.41
2019-05-26T18:53:18.729Z,59.05
2019-05-26T18:55:48.880Z,59.15
2019-05-26T18:58:19.077Z,59.17
2019-05-26T19:00:50.714Z,59.52
2019-05-26T19:03:22.935Z,60.06
2019-05-26T19:05:53.151Z,59.69
2019-05-26T19:08:23.391Z,59.54
2019-05-26T19:10:53.588Z,59.07
2019-05-26T19:13:23.794Z,59.45
2019-05-26T19:15:53.958Z,59.45
2019-05-26T19:18:26.814Z,59.11
2019-05-26T19:20:58.979Z,60.04
2019-05-26T19:23:29.219Z,59.53
2019-05-26T19:26:00.669Z,59.52
2019-05-26T19:28:30.879Z,59.65
2019-05-26T19:31:01.096Z,60.25
2019-05-26T19:33:31.296Z,60.34
2019-05-26T19:36:01.592Z,60.88
2019-05-26T19:38:31.842Z,60.44
2019-05-26T19:41:02.061Z,60.48
2019-05-26T19:43:32.302Z,60.74
2019-05-26T19:46:02.501Z,60.66
2019-05-26T19:48:36.730Z,59.95
2019-05-26T19:51:05.998Z,61.04
2019-05-26T19:53:36.214Z,60.44
2019-05-26T19:56:06.418Z,59.85
2019-05-26T19:58:36.782Z,60.36
2019-05-26T20:01:09.119Z,60.53
2019-05-26T20:03:39.292Z,61.24
2019-05-26T20:06:09.524Z,60.29
2019-05-26T20:08:39.695Z,60.73
2019-05-26T20:11:09.897Z,60.51
2019-05-26T20:13:40.091Z,60.52
2019-05-26T20:16:10.293Z,59.88
2019-05-26T20:18:40.438Z,59.45
2019-05-26T20:21:10.641Z,60.25
2019-05-26T20:23:40.780Z,59.94
2019-05-26T20:26:11.707Z,60.38
2019-05-26T20:28:41.843Z,60.38
2019-05-26T20:31:11.984Z,59.46
2019-05-26T20:33:42.138Z,59.47
2019-05-26T20:36:12.266Z,59.63
2019-05-26T20:38:42.498Z,59.89
2019-05-26T20:41:12.644Z,60.18
2019-05-26T20:43:42.848Z,60.11
2019-05-26T20:46:12.983Z,61.56
2019-05-26T20:48:43.190Z,61.26
2019-05-26T20:51:13.315Z,61.10
2019-05-26T20:53:43.494Z,61.97
2019-05-26T20:56:13.631Z,62.82
2019-05-26T20:58:43.769Z,63.23
2019-05-26T21:01:13.911Z,63.27
2019-05-26T21:03:44.047Z,62.64
2019-05-26T21:06:14.570Z,62.70
2019-05-26T21:08:44.710Z,62.14
2019-05-26T21:11:14.844Z,61.81
2019-05-26T21:13:45.018Z,61.72
2019-05-26T21:16:15.146Z,61.46
2019-05-26T21:18:45.289Z,61.50
2019-05-26T21:21:15.438Z,61.36
2019-05-26T21:23:45.583Z,61.56
2019-05-26T21:26:15.739Z,61.58
2019-05-26T21:28:45.943Z,61.28
2019-05-26T21:31:16.065Z,61.24
2019-05-26T21:33:46.203Z,61.62
2019-05-26T21:36:16.338Z,61.45
2019-05-26T21:38:46.472Z,62.54
2019-05-26T21:41:17.138Z,62.48
2019-05-26T21:43:47.282Z,63.31
2019-05-26T21:46:17.417Z,63.31
2019-05-26T21:48:47.575Z,62.91
2019-05-26T21:51:17.699Z,62.83
2019-05-26T21:53:47.854Z,62.35
2019-05-26T21:56:18.071Z,62.32
2019-05-26T21:58:48.218Z,62.38
2019-05-26T22:01:18.389Z,62.81
2019-05-26T22:03:48.582Z,62.88
2019-05-26T22:06:20.118Z,62.92
2019-05-26T22:08:50.780Z,62.93
2019-05-26T22:11:20.938Z,63.05
2019-05-26T22:13:51.064Z,63.46
2019-05-26T22:16:21.621Z,63.65
2019-05-26T22:18:52.168Z,62.92
2019-05-26T22:21:22.686Z,62.26
2019-05-26T22:23:53.222Z,61.89
2019-05-26T22:26:23.708Z,61.66
2019-05-26T22:28:54.444Z,61.64
2019-05-26T22:31:25.230Z,62.30
2019-05-26T22:33:55.853Z,62.93
2019-05-26T22:36:26.413Z,62.59
2019-05-26T22:38:57.016Z,62.31
2019-05-26T22:41:28.697Z,62.26
2019-05-26T22:43:59.341Z,62.44
2019-05-26T22:46:29.856Z,62.57
2019-05-26T22:49:00.293Z,62.87
2019-05-26T22:51:31.015Z,63.13
2019-05-26T22:54:01.403Z,63.47
2019-05-26T22:56:32.034Z,63.83
2019-05-26T22:59:02.447Z,63.89
2019-05-26T23:01:32.983Z,63.90
2019-05-26T23:04:04.039Z,63.95
2019-05-26T23:06:34.614Z,64.02
2019-05-26T23:09:06.143Z,64.33
2019-05-26T23:11:36.642Z,64.09
2019-05-26T23:14:07.070Z,64.25
2019-05-26T23:16:37.496Z,64.35
2019-05-26T23:19:18.870Z,64.46
2019-05-26T23:21:40.383Z,64.40
2019-05-26T23:24:10.834Z,64.07
2019-05-26T23:26:40.978Z,63.95
2019-05-26T23:29:11.127Z,63.88
2019-05-26T23:31:41.286Z,63.72
2019-05-26T23:34:11.423Z,63.78
2019-05-26T23:36:41.561Z,63.81
2019-05-26T23:39:11.772Z,63.81
2019-05-26T23:41:41.892Z,64.40
2019-05-26T23:44:12.066Z,64.56
2019-05-26T23:46:42.227Z,64.92
2019-05-26T23:49:12.381Z,64.19
2019-05-26T23:51:42.515Z,64.21
2019-05-26T23:54:12.658Z,64.05
2019-05-26T23:56:42.766Z,64.09
2019-05-26T23:59:12.901Z,64.14
